sensor_id;sensor_type;location;lat;lon;timestamp;pressure;altitude;pressure_sealevel;temperature;humidity
29385;BME280;16367;48.736;9.218;2024-02-26T00:01:04;-23399.91;;;7.32;76.11
29385;BME280;16367;48.736;9.218;2024-02-26T00:03:08;-23401.97;;;7.38;76.32
29385;BME280;16367;48.736;9.218;2024-02-26T00:05:11;-23404.34;;;7.46;75.90
29385;BME280;16367;48.736;9.218;2024-02-26T00:07:14;-23401.66;;;7.37;76.42
29385;BME280;16367;48.736;9.218;2024-02-26T00:09:17;-23395.63;;;7.18;76.94
29385;BME280;16367;48.736;9.218;2024-02-26T00:11:20;-23403.09;;;7.42;76.82
29385;BME280;16367;48.736;9.218;2024-02-26T00:13:23;-23395.78;;;7.19;77.14
29385;BME280;16367;48.736;9.218;2024-02-26T00:15:26;-23396.09;;;7.20;76.64
29385;BME280;16367;48.736;9.218;2024-02-26T00:17:35;-23397.06;;;7.23;76.25
29385;BME280;16367;48.736;9.218;2024-02-26T00:19:39;-23392.28;;;7.08;76.45
29385;BME280;16367;48.736;9.218;2024-02-26T00:21:42;-23390.38;;;7.02;77.65
29385;BME280;16367;48.736;9.218;2024-02-26T00:23:45;-23389.44;;;6.99;77.36
29385;BME280;16367;48.736;9.218;2024-02-26T00:25:48;-23391.34;;;7.05;77.28
29385;BME280;16367;48.736;9.218;2024-02-26T00:27:51;-23396.41;;;7.21;76.50
29385;BME280;16367;48.736;9.218;2024-02-26T00:29:54;-23394.81;;;7.16;76.57
29385;BME280;16367;48.736;9.218;2024-02-26T00:31:56;-23399.28;;;7.30;76.83
29385;BME280;16367;48.736;9.218;2024-02-26T00:33:59;-23398.31;;;7.27;77.08
29385;BME280;16367;48.736;9.218;2024-02-26T00:36:03;-23395.78;;;7.19;76.34
29385;BME280;16367;48.736;9.218;2024-02-26T00:38:06;-23392.44;;;7.08;77.30
29385;BME280;16367;48.736;9.218;2024-02-26T00:40:09;-23386.56;;;6.90;77.57
29385;BME280;16367;48.736;9.218;2024-02-26T00:42:12;-23388.16;;;6.95;78.27
29385;BME280;16367;48.736;9.218;2024-02-26T00:44:15;-23392.13;;;7.07;78.22
29385;BME280;16367;48.736;9.218;2024-02-26T00:46:18;-23395.00;;;7.16;78.09
29385;BME280;16367;48.736;9.218;2024-02-26T00:48:20;-23391.00;;;7.04;77.40
29385;BME280;16367;48.736;9.218;2024-02-26T00:50:27;-23390.38;;;7.02;78.02
29385;BME280;16367;48.736;9.218;2024-02-26T00:52:31;-23388.78;;;6.97;78.34
29385;BME280;16367;48.736;9.218;2024-02-26T00:54:37;-23391.00;;;7.04;77.72
29385;BME280;16367;48.736;9.218;2024-02-26T00:56:40;-23393.22;;;7.11;76.20
29385;BME280;16367;48.736;9.218;2024-02-26T00:58:43;-23396.09;;;7.20;77.20
29385;BME280;16367;48.736;9.218;2024-02-26T01:00:46;-23389.75;;;7.00;78.12
29385;BME280;16367;48.736;9.218;2024-02-26T01:02:49;-23383.38;;;6.80;78.94
29385;BME280;16367;48.736;9.218;2024-02-26T01:04:52;-23380.84;;;6.71;80.78
29385;BME280;16367;48.736;9.218;2024-02-26T01:06:55;-23391.50;;;7.05;79.03
29385;BME280;16367;48.736;9.218;2024-02-26T01:08:59;-23386.72;;;6.90;78.33
29385;BME280;16367;48.736;9.218;2024-02-26T01:11:03;-23385.28;;;6.86;79.62
29385;BME280;16367;48.736;9.218;2024-02-26T01:13:05;-23384.81;;;6.84;78.81
29385;BME280;16367;48.736;9.218;2024-02-26T01:15:09;-23384.34;;;6.83;79.53
29385;BME280;16367;48.736;9.218;2024-02-26T01:17:12;-23383.69;;;6.81;79.46
29385;BME280;16367;48.736;9.218;2024-02-26T01:19:20;-23380.06;;;6.69;79.84
29385;BME280;16367;48.736;9.218;2024-02-26T01:21:23;-23385.59;;;6.87;79.86
29385;BME280;16367;48.736;9.218;2024-02-26T01:23:25;-23382.75;;;6.78;78.96
29385;BME280;16367;48.736;9.218;2024-02-26T01:25:32;-23386.56;;;6.90;79.00
29385;BME280;16367;48.736;9.218;2024-02-26T01:27:36;-23386.25;;;6.89;79.66
29385;BME280;16367;48.736;9.218;2024-02-26T01:29:41;-23382.44;;;6.76;80.11
29385;BME280;16367;48.736;9.218;2024-02-26T01:31:44;-23382.91;;;6.78;80.97
29385;BME280;16367;48.736;9.218;2024-02-26T01:33:47;-23383.69;;;6.81;79.72
29385;BME280;16367;48.736;9.218;2024-02-26T01:35:50;-23380.06;;;6.69;81.77
29385;BME280;16367;48.736;9.218;2024-02-26T01:37:54;-23384.97;;;6.85;79.42
29385;BME280;16367;48.736;9.218;2024-02-26T01:39:57;-23384.66;;;6.84;79.57
29385;BME280;16367;48.736;9.218;2024-02-26T01:42:01;-23387.84;;;6.94;79.25
29385;BME280;16367;48.736;9.218;2024-02-26T01:44:06;-23384.50;;;6.83;79.21
29385;BME280;16367;48.736;9.218;2024-02-26T01:46:11;-23382.13;;;6.75;79.61
29385;BME280;16367;48.736;9.218;2024-02-26T01:48:15;-23385.59;;;6.87;78.59
29385;BME280;16367;48.736;9.218;2024-02-26T01:50:19;-23385.78;;;6.87;78.56
29385;BME280;16367;48.736;9.218;2024-02-26T01:52:24;-23384.66;;;6.84;80.15
29385;BME280;16367;48.736;9.218;2024-02-26T01:54:29;-23379.72;;;6.68;80.28
29385;BME280;16367;48.736;9.218;2024-02-26T01:56:32;-23385.28;;;6.86;80.42
29385;BME280;16367;48.736;9.218;2024-02-26T01:58:38;-23378.63;;;6.64;81.74
29385;BME280;16367;48.736;9.218;2024-02-26T02:00:47;-23378.78;;;6.65;82.18
29385;BME280;16367;48.736;9.218;2024-02-26T02:02:54;-23379.88;;;6.68;82.36
29385;BME280;16367;48.736;9.218;2024-02-26T02:04:57;-23378.63;;;6.64;82.95
29385;BME280;16367;48.736;9.218;2024-02-26T02:07:00;-23378.78;;;6.65;82.80
29385;BME280;16367;48.736;9.218;2024-02-26T02:09:05;-23376.41;;;6.57;83.71
29385;BME280;16367;48.736;9.218;2024-02-26T02:11:12;-23374.16;;;6.50;84.61
29385;BME280;16367;48.736;9.218;2024-02-26T02:13:16;-23376.56;;;6.58;83.36
29385;BME280;16367;48.736;9.218;2024-02-26T02:15:20;-23380.84;;;6.71;82.90
29385;BME280;16367;48.736;9.218;2024-02-26T02:17:23;-23380.84;;;6.71;82.15
29385;BME280;16367;48.736;9.218;2024-02-26T02:19:30;-23377.97;;;6.62;80.98
29385;BME280;16367;48.736;9.218;2024-02-26T02:21:35;-23390.84;;;7.03;73.82
29385;BME280;16367;48.736;9.218;2024-02-26T02:23:39;-23391.00;;;7.04;76.27
29385;BME280;16367;48.736;9.218;2024-02-26T02:25:42;-23391.81;;;7.06;75.88
29385;BME280;16367;48.736;9.218;2024-02-26T02:27:53;-23389.59;;;6.99;75.28
29385;BME280;16367;48.736;9.218;2024-02-26T02:29:56;-23389.44;;;6.99;74.07
29385;BME280;16367;48.736;9.218;2024-02-26T02:32:01;-23392.59;;;7.09;74.08
29385;BME280;16367;48.736;9.218;2024-02-26T02:34:04;-23396.56;;;7.21;73.40
29385;BME280;16367;48.736;9.218;2024-02-26T02:36:08;-23400.53;;;7.34;70.18
29385;BME280;16367;48.736;9.218;2024-02-26T02:38:13;-23399.91;;;7.32;72.98
29385;BME280;16367;48.736;9.218;2024-02-26T02:40:16;-23398.00;;;7.26;73.23
29385;BME280;16367;48.736;9.218;2024-02-26T02:42:19;-23401.50;;;7.37;73.75
29385;BME280;16367;48.736;9.218;2024-02-26T02:44:22;-23398.97;;;7.29;73.97
29385;BME280;16367;48.736;9.218;2024-02-26T02:46:25;-23404.53;;;7.46;73.93
29385;BME280;16367;48.736;9.218;2024-02-26T02:48:30;-23401.66;;;7.37;74.51
29385;BME280;16367;48.736;9.218;2024-02-26T02:50:33;-23405.31;;;7.49;74.26
29385;BME280;16367;48.736;9.218;2024-02-26T02:52:36;-23404.69;;;7.47;74.15
29385;BME280;16367;48.736;9.218;2024-02-26T02:54:39;-23404.03;;;7.45;73.76
29385;BME280;16367;48.736;9.218;2024-02-26T02:56:43;-23405.94;;;7.51;74.51
29385;BME280;16367;48.736;9.218;2024-02-26T02:58:46;-23408.16;;;7.58;72.93
29385;BME280;16367;48.736;9.218;2024-02-26T03:00:49;-23405.63;;;7.50;72.02
29385;BME280;16367;48.736;9.218;2024-02-26T03:02:54;-23405.94;;;7.51;71.70
29385;BME280;16367;48.736;9.218;2024-02-26T03:04:57;-23405.00;;;7.48;71.05
29385;BME280;16367;48.736;9.218;2024-02-26T03:07:00;-23405.94;;;7.51;71.59
29385;BME280;16367;48.736;9.218;2024-02-26T03:09:03;-23407.84;;;7.57;71.38
29385;BME280;16367;48.736;9.218;2024-02-26T03:11:07;-23395.78;;;7.19;76.44
29385;BME280;16367;48.736;9.218;2024-02-26T03:13:12;-23405.94;;;7.51;74.62
29385;BME280;16367;48.736;9.218;2024-02-26T03:15:15;-23400.88;;;7.35;76.88
29385;BME280;16367;48.736;9.218;2024-02-26T03:17:18;-23406.91;;;7.54;75.47
29385;BME280;16367;48.736;9.218;2024-02-26T03:19:21;-23401.81;;;7.38;75.25
29385;BME280;16367;48.736;9.218;2024-02-26T03:21:27;-23399.91;;;7.32;76.52
29385;BME280;16367;48.736;9.218;2024-02-26T03:23:32;-23398.78;;;7.28;76.18
29385;BME280;16367;48.736;9.218;2024-02-26T03:25:38;-23400.38;;;7.33;75.49
29385;BME280;16367;48.736;9.218;2024-02-26T03:27:44;-23399.75;;;7.31;75.22
29385;BME280;16367;48.736;9.218;2024-02-26T03:29:47;-23400.88;;;7.35;75.80
29385;BME280;16367;48.736;9.218;2024-02-26T03:31:49;-23400.72;;;7.34;76.17
29385;BME280;16367;48.736;9.218;2024-02-26T03:33:52;-23398.31;;;7.27;76.59
29385;BME280;16367;48.736;9.218;2024-02-26T03:35:55;-23402.63;;;7.40;73.42
29385;BME280;16367;48.736;9.218;2024-02-26T03:37:58;-23405.94;;;7.51;72.48
29385;BME280;16367;48.736;9.218;2024-02-26T03:40:01;-23410.88;;;7.67;71.04
29385;BME280;16367;48.736;9.218;2024-02-26T03:42:05;-23419.44;;;7.94;70.22
29385;BME280;16367;48.736;9.218;2024-02-26T03:44:09;-23418.34;;;7.90;71.79
29385;BME280;16367;48.736;9.218;2024-02-26T03:46:12;-23414.84;;;7.79;72.48
29385;BME280;16367;48.736;9.218;2024-02-26T03:48:17;-23417.69;;;7.88;71.41
29385;BME280;16367;48.736;9.218;2024-02-26T03:50:20;-23404.84;;;7.47;73.86
29385;BME280;16367;48.736;9.218;2024-02-26T03:52:23;-23401.97;;;7.38;75.00
29385;BME280;16367;48.736;9.218;2024-02-26T03:54:26;-23399.59;;;7.31;75.66
29385;BME280;16367;48.736;9.218;2024-02-26T03:56:29;-23398.00;;;7.26;76.29
29385;BME280;16367;48.736;9.218;2024-02-26T03:58:31;-23394.19;;;7.14;77.36
29385;BME280;16367;48.736;9.218;2024-02-26T04:00:38;-23395.16;;;7.17;77.28
29385;BME280;16367;48.736;9.218;2024-02-26T04:02:40;-23403.09;;;7.42;75.83
29385;BME280;16367;48.736;9.218;2024-02-26T04:04:42;-23400.88;;;7.35;75.55
29385;BME280;16367;48.736;9.218;2024-02-26T04:06:46;-23393.41;;;7.11;76.68
29385;BME280;16367;48.736;9.218;2024-02-26T04:08:49;-23388.63;;;6.96;77.04
29385;BME280;16367;48.736;9.218;2024-02-26T04:10:52;-23387.84;;;6.94;77.16
29385;BME280;16367;48.736;9.218;2024-02-26T04:12:56;-23388.94;;;6.97;77.80
29385;BME280;16367;48.736;9.218;2024-02-26T04:14:58;-23395.16;;;7.17;77.35
29385;BME280;16367;48.736;9.218;2024-02-26T04:17:03;-23388.16;;;6.95;77.21
29385;BME280;16367;48.736;9.218;2024-02-26T04:19:05;-23390.38;;;7.02;76.70
29385;BME280;16367;48.736;9.218;2024-02-26T04:21:08;-23391.97;;;7.07;77.06
29385;BME280;16367;48.736;9.218;2024-02-26T04:23:11;-23390.22;;;7.01;77.75
29385;BME280;16367;48.736;9.218;2024-02-26T04:25:14;-23393.22;;;7.11;77.13
29385;BME280;16367;48.736;9.218;2024-02-26T04:27:17;-23395.16;;;7.17;76.34
29385;BME280;16367;48.736;9.218;2024-02-26T04:29:19;-23398.16;;;7.26;74.71
29385;BME280;16367;48.736;9.218;2024-02-26T04:31:22;-23392.91;;;7.10;75.89
29385;BME280;16367;48.736;9.218;2024-02-26T04:33:27;-23392.91;;;7.10;75.26
29385;BME280;16367;48.736;9.218;2024-02-26T04:35:30;-23393.56;;;7.12;74.65
29385;BME280;16367;48.736;9.218;2024-02-26T04:37:33;-23398.97;;;7.29;74.29
29385;BME280;16367;48.736;9.218;2024-02-26T04:39:36;-23391.50;;;7.05;75.55
29385;BME280;16367;48.736;9.218;2024-02-26T04:41:39;-23380.53;;;6.70;77.55
29385;BME280;16367;48.736;9.218;2024-02-26T04:43:42;-23382.44;;;6.76;78.39
29385;BME280;16367;48.736;9.218;2024-02-26T04:45:45;-23381.47;;;6.73;79.13
29385;BME280;16367;48.736;9.218;2024-02-26T04:47:54;-23379.88;;;6.68;79.47
29385;BME280;16367;48.736;9.218;2024-02-26T04:49:58;-23373.22;;;6.47;81.26
29385;BME280;16367;48.736;9.218;2024-02-26T04:52:01;-23377.34;;;6.60;81.62
29385;BME280;16367;48.736;9.218;2024-02-26T04:54:04;-23382.13;;;6.75;82.12
29385;BME280;16367;48.736;9.218;2024-02-26T04:56:07;-23380.53;;;6.70;82.82
29385;BME280;16367;48.736;9.218;2024-02-26T04:58:10;-23374.16;;;6.50;84.45
29385;BME280;16367;48.736;9.218;2024-02-26T05:00:16;-23370.34;;;6.38;85.02
29385;BME280;16367;48.736;9.218;2024-02-26T05:02:19;-23372.25;;;6.44;84.92
29385;BME280;16367;48.736;9.218;2024-02-26T05:04:22;-23361.44;;;6.10;86.22
29385;BME280;16367;48.736;9.218;2024-02-26T05:06:27;-23367.97;;;6.31;86.13
29385;BME280;16367;48.736;9.218;2024-02-26T05:08:31;-23367.16;;;6.28;86.22
29385;BME280;16367;48.736;9.218;2024-02-26T05:10:35;-23366.53;;;6.26;85.79
29385;BME280;16367;48.736;9.218;2024-02-26T05:12:42;-23365.56;;;6.23;86.00
29385;BME280;16367;48.736;9.218;2024-02-26T05:14:45;-23367.00;;;6.28;86.48
29385;BME280;16367;48.736;9.218;2024-02-26T05:16:48;-23364.47;;;6.20;85.66
29385;BME280;16367;48.736;9.218;2024-02-26T05:18:52;-23366.06;;;6.25;86.15
29385;BME280;16367;48.736;9.218;2024-02-26T05:20:55;-23367.81;;;6.30;85.42
29385;BME280;16367;48.736;9.218;2024-02-26T05:22:59;-23372.25;;;6.44;83.81
29385;BME280;16367;48.736;9.218;2024-02-26T05:25:03;-23378.47;;;6.64;81.71
29385;BME280;16367;48.736;9.218;2024-02-26T05:27:06;-23377.34;;;6.60;81.22
29385;BME280;16367;48.736;9.218;2024-02-26T05:29:09;-23372.56;;;6.45;81.61
29385;BME280;16367;48.736;9.218;2024-02-26T05:31:13;-23374.31;;;6.51;82.37
29385;BME280;16367;48.736;9.218;2024-02-26T05:33:16;-23378.78;;;6.65;81.40
29385;BME280;16367;48.736;9.218;2024-02-26T05:35:20;-23376.56;;;6.58;80.97
29385;BME280;16367;48.736;9.218;2024-02-26T05:37:25;-23377.34;;;6.60;81.49
29385;BME280;16367;48.736;9.218;2024-02-26T05:39:28;-23374.16;;;6.50;81.50
29385;BME280;16367;48.736;9.218;2024-02-26T05:41:31;-23377.66;;;6.61;82.72
29385;BME280;16367;48.736;9.218;2024-02-26T05:43:40;-23371.94;;;6.43;83.03
29385;BME280;16367;48.736;9.218;2024-02-26T05:45:43;-23373.06;;;6.47;84.45
29385;BME280;16367;48.736;9.218;2024-02-26T05:47:46;-23371.00;;;6.40;86.41
29385;BME280;16367;48.736;9.218;2024-02-26T05:49:51;-23372.56;;;6.45;87.36
29385;BME280;16367;48.736;9.218;2024-02-26T05:51:54;-23368.75;;;6.33;89.66
29385;BME280;16367;48.736;9.218;2024-02-26T05:54:02;-23365.56;;;6.23;94.14
29385;BME280;16367;48.736;9.218;2024-02-26T05:56:07;-23362.25;;;6.13;96.81
29385;BME280;16367;48.736;9.218;2024-02-26T05:58:10;-23371.63;;;6.42;91.81
29385;BME280;16367;48.736;9.218;2024-02-26T06:00:15;-23364.78;;;6.21;94.20
29385;BME280;16367;48.736;9.218;2024-02-26T06:02:17;-23366.22;;;6.25;93.95
29385;BME280;16367;48.736;9.218;2024-02-26T06:04:20;-23372.56;;;6.45;95.20
29385;BME280;16367;48.736;9.218;2024-02-26T06:06:23;-23369.06;;;6.34;94.87
29385;BME280;16367;48.736;9.218;2024-02-26T06:08:26;-23370.34;;;6.38;92.36
29385;BME280;16367;48.736;9.218;2024-02-26T06:10:29;-23366.22;;;6.25;95.08
29385;BME280;16367;48.736;9.218;2024-02-26T06:12:36;-23366.06;;;6.25;97.15
29385;BME280;16367;48.736;9.218;2024-02-26T06:14:41;-23364.63;;;6.20;98.59
29385;BME280;16367;48.736;9.218;2024-02-26T06:16:44;-23359.84;;;6.05;99.29
29385;BME280;16367;48.736;9.218;2024-02-26T06:18:47;-23360.50;;;6.07;99.75
29385;BME280;16367;48.736;9.218;2024-02-26T06:20:50;-23358.09;;;5.99;99.78
29385;BME280;16367;48.736;9.218;2024-02-26T06:22:53;-23363.50;;;6.17;96.81
29385;BME280;16367;48.736;9.218;2024-02-26T06:24:56;-23367.34;;;6.29;97.67
29385;BME280;16367;48.736;9.218;2024-02-26T06:26:59;-23368.13;;;6.31;97.18
29385;BME280;16367;48.736;9.218;2024-02-26T06:29:03;-23375.75;;;6.55;96.06
29385;BME280;16367;48.736;9.218;2024-02-26T06:31:06;-23370.66;;;6.39;94.70
29385;BME280;16367;48.736;9.218;2024-02-26T06:33:09;-23369.72;;;6.36;93.90
29385;BME280;16367;48.736;9.218;2024-02-26T06:35:12;-23365.91;;;6.24;95.63
29385;BME280;16367;48.736;9.218;2024-02-26T06:37:15;-23367.16;;;6.28;97.50
29385;BME280;16367;48.736;9.218;2024-02-26T06:39:18;-23369.06;;;6.34;97.37
29385;BME280;16367;48.736;9.218;2024-02-26T06:41:21;-23368.44;;;6.32;96.93
29385;BME280;16367;48.736;9.218;2024-02-26T06:43:28;-23375.44;;;6.54;94.79
29385;BME280;16367;48.736;9.218;2024-02-26T06:45:32;-23374.63;;;6.52;94.15
29385;BME280;16367;48.736;9.218;2024-02-26T06:47:37;-23374.81;;;6.52;94.05
29385;BME280;16367;48.736;9.218;2024-02-26T06:49:41;-23375.75;;;6.55;93.00
29385;BME280;16367;48.736;9.218;2024-02-26T06:51:45;-23375.91;;;6.56;93.09
29385;BME280;16367;48.736;9.218;2024-02-26T06:53:49;-23378.13;;;6.63;92.56
29385;BME280;16367;48.736;9.218;2024-02-26T06:55:52;-23392.13;;;7.07;87.90
29385;BME280;16367;48.736;9.218;2024-02-26T06:57:55;-23389.91;;;7.00;86.85
29385;BME280;16367;48.736;9.218;2024-02-26T06:59:57;-23384.34;;;6.83;88.29
29385;BME280;16367;48.736;9.218;2024-02-26T07:02:02;-23393.22;;;7.11;85.61
29385;BME280;16367;48.736;9.218;2024-02-26T07:04:05;-23396.09;;;7.20;85.95
29385;BME280;16367;48.736;9.218;2024-02-26T07:06:08;-23395.16;;;7.17;83.69
29385;BME280;16367;48.736;9.218;2024-02-26T07:08:11;-23390.69;;;7.03;85.70
29385;BME280;16367;48.736;9.218;2024-02-26T07:10:14;-23394.19;;;7.14;83.69
29385;BME280;16367;48.736;9.218;2024-02-26T07:12:17;-23398.00;;;7.26;82.78
29385;BME280;16367;48.736;9.218;2024-02-26T07:14:21;-23393.88;;;7.13;82.86
29385;BME280;16367;48.736;9.218;2024-02-26T07:16:24;-23394.81;;;7.16;82.75
29385;BME280;16367;48.736;9.218;2024-02-26T07:18:29;-23389.59;;;6.99;84.53
29385;BME280;16367;48.736;9.218;2024-02-26T07:20:32;-23392.13;;;7.07;85.41
29385;BME280;16367;48.736;9.218;2024-02-26T07:22:34;-23390.38;;;7.02;87.21
29385;BME280;16367;48.736;9.218;2024-02-26T07:24:38;-23395.47;;;7.18;84.54
29385;BME280;16367;48.736;9.218;2024-02-26T07:26:43;-23400.72;;;7.34;82.73
29385;BME280;16367;48.736;9.218;2024-02-26T07:28:46;-23394.03;;;7.13;84.14
29385;BME280;16367;48.736;9.218;2024-02-26T07:30:49;-23401.34;;;7.36;83.76
29385;BME280;16367;48.736;9.218;2024-02-26T07:32:54;-23392.44;;;7.08;83.99
29385;BME280;16367;48.736;9.218;2024-02-26T07:34:59;-23390.22;;;7.01;85.39
29385;BME280;16367;48.736;9.218;2024-02-26T07:37:03;-23399.59;;;7.31;83.85
29385;BME280;16367;48.736;9.218;2024-02-26T07:39:05;-23399.91;;;7.32;82.37
29385;BME280;16367;48.736;9.218;2024-02-26T07:41:08;-23399.44;;;7.30;82.36
29385;BME280;16367;48.736;9.218;2024-02-26T07:43:12;-23397.06;;;7.23;83.04
29385;BME280;16367;48.736;9.218;2024-02-26T07:45:15;-23397.69;;;7.25;84.55
29385;BME280;16367;48.736;9.218;2024-02-26T07:47:21;-23402.13;;;7.39;84.52
29385;BME280;16367;48.736;9.218;2024-02-26T07:49:26;-23402.13;;;7.39;85.59
29385;BME280;16367;48.736;9.218;2024-02-26T07:51:31;-23403.41;;;7.43;86.16
29385;BME280;16367;48.736;9.218;2024-02-26T07:53:34;-23399.59;;;7.31;86.98
29385;BME280;16367;48.736;9.218;2024-02-26T07:55:38;-23394.19;;;7.14;87.93
29385;BME280;16367;48.736;9.218;2024-02-26T07:57:42;-23402.13;;;7.39;85.82
29385;BME280;16367;48.736;9.218;2024-02-26T07:59:45;-23397.06;;;7.23;85.86
29385;BME280;16367;48.736;9.218;2024-02-26T08:01:51;-23397.53;;;7.24;86.91
29385;BME280;16367;48.736;9.218;2024-02-26T08:03:59;-23402.78;;;7.41;86.46
29385;BME280;16367;48.736;9.218;2024-02-26T08:06:02;-23404.69;;;7.47;86.96
29385;BME280;16367;48.736;9.218;2024-02-26T08:08:07;-23408.50;;;7.59;86.31
29385;BME280;16367;48.736;9.218;2024-02-26T08:10:10;-23406.41;;;7.52;86.13
29385;BME280;16367;48.736;9.218;2024-02-26T08:12:13;-23406.75;;;7.53;85.98
29385;BME280;16367;48.736;9.218;2024-02-26T08:14:16;-23410.88;;;7.67;85.47
29385;BME280;16367;48.736;9.218;2024-02-26T08:16:19;-23407.22;;;7.55;85.06
29385;BME280;16367;48.736;9.218;2024-02-26T08:18:21;-23407.06;;;7.54;85.62
29385;BME280;16367;48.736;9.218;2024-02-26T08:20:24;-23404.03;;;7.45;86.34
29385;BME280;16367;48.736;9.218;2024-02-26T08:22:27;-23405.00;;;7.48;85.75
29385;BME280;16367;48.736;9.218;2024-02-26T08:24:31;-23405.94;;;7.51;85.03
29385;BME280;16367;48.736;9.218;2024-02-26T08:26:34;-23398.00;;;7.26;85.26
29385;BME280;16367;48.736;9.218;2024-02-26T08:28:36;-23405.00;;;7.48;85.65
29385;BME280;16367;48.736;9.218;2024-02-26T08:30:39;-23405.63;;;7.50;85.38
29385;BME280;16367;48.736;9.218;2024-02-26T08:32:42;-23411.34;;;7.68;85.28
29385;BME280;16367;48.736;9.218;2024-02-26T08:34:47;-23406.91;;;7.54;84.58
29385;BME280;16367;48.736;9.218;2024-02-26T08:36:50;-23411.66;;;7.69;84.89
29385;BME280;16367;48.736;9.218;2024-02-26T08:38:52;-23418.66;;;7.91;84.41
29385;BME280;16367;48.736;9.218;2024-02-26T08:40:57;-23413.88;;;7.76;83.88
29385;BME280;16367;48.736;9.218;2024-02-26T08:43:00;-23418.34;;;7.90;83.79
29385;BME280;16367;48.736;9.218;2024-02-26T08:45:03;-23419.13;;;7.93;83.30
29385;BME280;16367;48.736;9.218;2024-02-26T08:47:06;-23426.75;;;8.17;82.23
29385;BME280;16367;48.736;9.218;2024-02-26T08:49:08;-23427.84;;;8.20;80.31
29385;BME280;16367;48.736;9.218;2024-02-26T08:51:11;-23427.38;;;8.19;79.71
29385;BME280;16367;48.736;9.218;2024-02-26T08:53:15;-23425.97;;;8.14;78.96
29385;BME280;16367;48.736;9.218;2024-02-26T08:55:25;-23438.19;;;8.53;79.95
29385;BME280;16367;48.736;9.218;2024-02-26T08:57:29;-23435.16;;;8.44;79.42
29385;BME280;16367;48.736;9.218;2024-02-26T08:59:34;-23439.28;;;8.57;79.61
29385;BME280;16367;48.736;9.218;2024-02-26T09:01:37;-23442.94;;;8.68;78.20
29385;BME280;16367;48.736;9.218;2024-02-26T09:03:40;-23438.50;;;8.54;79.60
29385;BME280;16367;48.736;9.218;2024-02-26T09:05:43;-23441.69;;;8.64;78.37
29385;BME280;16367;48.736;9.218;2024-02-26T09:07:46;-23444.06;;;8.72;77.76
29385;BME280;16367;48.736;9.218;2024-02-26T09:09:49;-23428.81;;;8.23;80.42
29385;BME280;16367;48.736;9.218;2024-02-26T09:11:52;-23430.72;;;8.30;81.21
29385;BME280;16367;48.736;9.218;2024-02-26T09:13:58;-23442.16;;;8.66;77.64
29385;BME280;16367;48.736;9.218;2024-02-26T09:16:01;-23439.59;;;8.58;76.87
29385;BME280;16367;48.736;9.218;2024-02-26T09:18:04;-23444.38;;;8.73;76.04
29385;BME280;16367;48.736;9.218;2024-02-26T09:20:07;-23431.19;;;8.31;75.79
29385;BME280;16367;48.736;9.218;2024-02-26T09:22:11;-23434.69;;;8.42;76.57
29385;BME280;16367;48.736;9.218;2024-02-26T09:24:16;-23427.72;;;8.20;76.58
29385;BME280;16367;48.736;9.218;2024-02-26T09:26:19;-23430.56;;;8.29;76.84
29385;BME280;16367;48.736;9.218;2024-02-26T09:28:22;-23442.31;;;8.66;76.05
29385;BME280;16367;48.736;9.218;2024-02-26T09:30:26;-23446.59;;;8.80;75.51
29385;BME280;16367;48.736;9.218;2024-02-26T09:32:29;-23449.13;;;8.88;74.81
29385;BME280;16367;48.736;9.218;2024-02-26T09:34:32;-23444.69;;;8.74;75.78
29385;BME280;16367;48.736;9.218;2024-02-26T09:36:36;-23438.50;;;8.54;77.70
29385;BME280;16367;48.736;9.218;2024-02-26T09:38:39;-23436.44;;;8.48;77.48
29385;BME280;16367;48.736;9.218;2024-02-26T09:40:57;-23438.66;;;8.55;76.91
29385;BME280;16367;48.736;9.218;2024-02-26T09:43:00;-23447.38;;;8.82;74.33
29385;BME280;16367;48.736;9.218;2024-02-26T09:45:06;-23444.38;;;8.73;75.46
29385;BME280;16367;48.736;9.218;2024-02-26T09:47:15;-23434.38;;;8.41;76.25
29385;BME280;16367;48.736;9.218;2024-02-26T09:49:19;-23440.56;;;8.61;76.69
29385;BME280;16367;48.736;9.218;2024-02-26T09:51:23;-23448.66;;;8.86;77.52
29385;BME280;16367;48.736;9.218;2024-02-26T09:53:29;-23442.94;;;8.68;78.90
29385;BME280;16367;48.736;9.218;2024-02-26T09:55:33;-23449.78;;;8.90;79.58
29385;BME280;16367;48.736;9.218;2024-02-26T09:57:36;-23452.94;;;9.00;79.17
29385;BME280;16367;48.736;9.218;2024-02-26T09:59:41;-23460.88;;;9.25;79.49
29385;BME280;16367;48.736;9.218;2024-02-26T10:01:46;-23479.25;;;9.84;77.17
29385;BME280;16367;48.736;9.218;2024-02-26T10:03:55;-23473.88;;;9.66;75.39
29385;BME280;16367;48.736;9.218;2024-02-26T10:05:58;-23495.91;;;10.36;73.28
29385;BME280;16367;48.736;9.218;2024-02-26T10:08:01;-23485.28;;;10.03;71.47
29385;BME280;16367;48.736;9.218;2024-02-26T10:10:03;-23489.09;;;10.15;72.38
29385;BME280;16367;48.736;9.218;2024-02-26T10:12:10;-23486.41;;;10.06;72.87
29385;BME280;16367;48.736;9.218;2024-02-26T10:14:14;-23524.56;;;11.27;69.67
29385;BME280;16367;48.736;9.218;2024-02-26T10:16:17;-23532.19;;;11.52;64.63
29385;BME280;16367;48.736;9.218;2024-02-26T10:18:20;-23507.94;;;10.75;64.85
29385;BME280;16367;48.736;9.218;2024-02-26T10:20:24;-23478.00;;;9.80;69.12
29385;BME280;16367;48.736;9.218;2024-02-26T10:22:28;-23478.94;;;9.83;71.09
29385;BME280;16367;48.736;9.218;2024-02-26T10:24:31;-23515.06;;;10.97;69.86
29385;BME280;16367;48.736;9.218;2024-02-26T10:26:34;-23535.66;;;11.63;66.85
29385;BME280;16367;48.736;9.218;2024-02-26T10:28:37;-23528.06;;;11.39;66.23
29385;BME280;16367;48.736;9.218;2024-02-26T10:30:40;-23544.22;;;11.90;65.23
29385;BME280;16367;48.736;9.218;2024-02-26T10:32:44;-23511.91;;;10.87;64.76
29385;BME280;16367;48.736;9.218;2024-02-26T10:34:47;-23526.47;;;11.34;64.90
29385;BME280;16367;48.736;9.218;2024-02-26T10:36:53;-23529.16;;;11.42;65.41
29385;BME280;16367;48.736;9.218;2024-02-26T10:38:56;-23530.75;;;11.47;63.70
29385;BME280;16367;48.736;9.218;2024-02-26T10:40:59;-23524.25;;;11.27;66.62
29385;BME280;16367;48.736;9.218;2024-02-26T10:43:04;-23518.41;;;11.08;64.80
29385;BME280;16367;48.736;9.218;2024-02-26T10:45:07;-23535.66;;;11.63;64.47
29385;BME280;16367;48.736;9.218;2024-02-26T10:47:11;-23525.22;;;11.30;64.35
29385;BME280;16367;48.736;9.218;2024-02-26T10:49:15;-23516.34;;;11.01;65.57
29385;BME280;16367;48.736;9.218;2024-02-26T10:51:24;-23527.28;;;11.36;65.24
29385;BME280;16367;48.736;9.218;2024-02-26T10:53:31;-23533.13;;;11.55;64.65
29385;BME280;16367;48.736;9.218;2024-02-26T10:55:35;-23534.22;;;11.58;63.64